sensor_id;sensor_type;location;lat;lon;timestamp;P1;durP1;ratioP1;P2;durP2;ratioP2
6626;SDS011;3349;49.830;8.748;2023-08-01T00:00:06;13.63;;;5.93;;
6626;SDS011;3349;49.830;8.748;2023-08-01T00:02:33;9.77;;;5.95;;
6626;SDS011;3349;49.830;8.748;2023-08-01T00:05:00;12.52;;;5.93;;
6626;SDS011;3349;49.830;8.748;2023-08-01T00:07:27;12.38;;;5.65;;
6626;SDS011;3349;49.830;8.748;2023-08-01T00:09:54;12.18;;;6.15;;
6626;SDS011;3349;49.830;8.748;2023-08-01T00:12:21;8.77;;;5.53;;
6626;SDS011;3349;49.830;8.748;2023-08-01T00:14:51;8.63;;;5.43;;
6626;SDS011;3349;49.830;8.748;2023-08-01T00:17:18;11.80;;;5.93;;
6626;SDS011;3349;49.830;8.748;2023-08-01T00:19:45;10.23;;;6.25;;
6626;SDS011;3349;49.830;8.748;2023-08-01T00:22:12;12.68;;;5.95;;
6626;SDS011;3349;49.830;8.748;2023-08-01T00:24:39;10.25;;;6.60;;
6626;SDS011;3349;49.830;8.748;2023-08-01T00:27:06;12.70;;;6.28;;
6626;SDS011;3349;49.830;8.748;2023-08-01T00:29:34;10.30;;;6.10;;
6626;SDS011;3349;49.830;8.748;2023-08-01T00:32:02;11.55;;;5.90;;
6626;SDS011;3349;49.830;8.748;2023-08-01T00:34:29;10.32;;;7.63;;
6626;SDS011;3349;49.830;8.748;2023-08-01T00:36:56;13.35;;;6.60;;
6626;SDS011;3349;49.830;8.748;2023-08-01T00:39:23;10.68;;;6.90;;
6626;SDS011;3349;49.830;8.748;2023-08-01T00:41:49;14.48;;;7.10;;
6626;SDS011;3349;49.830;8.748;2023-08-01T00:44:16;10.95;;;7.28;;
6626;SDS011;3349;49.830;8.748;2023-08-01T00:46:43;11.60;;;6.65;;
6626;SDS011;3349;49.830;8.748;2023-08-01T00:49:11;8.77;;;5.78;;
6626;SDS011;3349;49.830;8.748;2023-08-01T00:51:38;10.07;;;6.25;;
6626;SDS011;3349;49.830;8.748;2023-08-01T00:54:04;10.70;;;6.47;;
6626;SDS011;3349;49.830;8.748;2023-08-01T00:56:32;11.93;;;6.38;;
6626;SDS011;3349;49.830;8.748;2023-08-01T00:58:59;10.80;;;6.28;;
6626;SDS011;3349;49.830;8.748;2023-08-01T01:01:26;11.77;;;6.25;;
6626;SDS011;3349;49.830;8.748;2023-08-01T01:03:53;10.45;;;6.63;;
6626;SDS011;3349;49.830;8.748;2023-08-01T01:06:23;9.88;;;6.03;;
6626;SDS011;3349;49.830;8.748;2023-08-01T01:08:54;12.48;;;6.55;;
6626;SDS011;3349;49.830;8.748;2023-08-01T01:11:21;11.40;;;6.22;;
6626;SDS011;3349;49.830;8.748;2023-08-01T01:13:48;14.13;;;7.15;;
6626;SDS011;3349;49.830;8.748;2023-08-01T01:16:17;11.50;;;6.50;;
6626;SDS011;3349;49.830;8.748;2023-08-01T01:18:44;9.90;;;6.38;;
6626;SDS011;3349;49.830;8.748;2023-08-01T01:21:12;16.13;;;7.07;;
6626;SDS011;3349;49.830;8.748;2023-08-01T01:23:39;11.45;;;6.07;;
6626;SDS011;3349;49.830;8.748;2023-08-01T01:26:06;10.65;;;6.45;;
6626;SDS011;3349;49.830;8.748;2023-08-01T01:28:34;17.38;;;6.70;;
6626;SDS011;3349;49.830;8.748;2023-08-01T01:31:02;15.07;;;6.50;;
6626;SDS011;3349;49.830;8.748;2023-08-01T01:33:29;10.88;;;6.43;;
6626;SDS011;3349;49.830;8.748;2023-08-01T01:35:56;13.30;;;5.97;;
6626;SDS011;3349;49.830;8.748;2023-08-01T01:38:24;8.95;;;6.15;;
6626;SDS011;3349;49.830;8.748;2023-08-01T01:40:51;9.20;;;5.72;;
6626;SDS011;3349;49.830;8.748;2023-08-01T01:43:18;11.43;;;6.25;;
6626;SDS011;3349;49.830;8.748;2023-08-01T01:45:44;11.60;;;5.97;;
6626;SDS011;3349;49.830;8.748;2023-08-01T01:48:11;9.98;;;5.53;;
6626;SDS011;3349;49.830;8.748;2023-08-01T01:50:37;11.13;;;5.75;;
6626;SDS011;3349;49.830;8.748;2023-08-01T01:53:04;10.68;;;6.50;;
6626;SDS011;3349;49.830;8.748;2023-08-01T01:55:32;14.77;;;6.55;;
6626;SDS011;3349;49.830;8.748;2023-08-01T01:57:59;11.93;;;6.85;;
6626;SDS011;3349;49.830;8.748;2023-08-01T02:00:27;15.60;;;6.70;;
6626;SDS011;3349;49.830;8.748;2023-08-01T02:02:54;12.60;;;7.60;;
6626;SDS011;3349;49.830;8.748;2023-08-01T02:05:20;13.73;;;7.18;;
6626;SDS011;3349;49.830;8.748;2023-08-01T02:07:47;12.23;;;6.35;;
6626;SDS011;3349;49.830;8.748;2023-08-01T02:10:14;11.20;;;6.25;;
6626;SDS011;3349;49.830;8.748;2023-08-01T02:12:42;11.48;;;6.00;;
6626;SDS011;3349;49.830;8.748;2023-08-01T02:15:08;10.93;;;5.88;;
6626;SDS011;3349;49.830;8.748;2023-08-01T02:17:35;10.82;;;5.82;;
6626;SDS011;3349;49.830;8.748;2023-08-01T02:20:02;9.45;;;5.38;;
6626;SDS011;3349;49.830;8.748;2023-08-01T02:22:29;6.50;;;5.45;;
6626;SDS011;3349;49.830;8.748;2023-08-01T02:24:56;8.15;;;5.47;;
6626;SDS011;3349;49.830;8.748;2023-08-01T02:27:23;8.15;;;5.03;;
6626;SDS011;3349;49.830;8.748;2023-08-01T02:29:51;9.75;;;5.30;;
6626;SDS011;3349;49.830;8.748;2023-08-01T02:32:18;8.55;;;5.38;;
6626;SDS011;3349;49.830;8.748;2023-08-01T02:34:44;9.98;;;5.30;;
6626;SDS011;3349;49.830;8.748;2023-08-01T02:37:11;9.85;;;5.15;;
6626;SDS011;3349;49.830;8.748;2023-08-01T02:39:38;8.88;;;5.38;;
6626;SDS011;3349;49.830;8.748;2023-08-01T02:42:04;8.88;;;5.30;;
6626;SDS011;3349;49.830;8.748;2023-08-01T02:44:31;7.05;;;5.00;;
6626;SDS011;3349;49.830;8.748;2023-08-01T02:46:59;11.05;;;5.20;;
6626;SDS011;3349;49.830;8.748;2023-08-01T02:49:26;11.00;;;5.07;;
6626;SDS011;3349;49.830;8.748;2023-08-01T02:51:53;8.52;;;5.07;;
6626;SDS011;3349;49.830;8.748;2023-08-01T02:54:19;7.25;;;5.13;;
6626;SDS011;3349;49.830;8.748;2023-08-01T02:56:46;8.23;;;5.35;;
6626;SDS011;3349;49.830;8.748;2023-08-01T02:59:13;10.15;;;5.43;;
6626;SDS011;3349;49.830;8.748;2023-08-01T03:01:39;9.65;;;5.55;;
6626;SDS011;3349;49.830;8.748;2023-08-01T03:04:07;7.13;;;5.20;;
6626;SDS011;3349;49.830;8.748;2023-08-01T03:06:36;8.35;;;5.00;;
6626;SDS011;3349;49.830;8.748;2023-08-01T03:09:03;9.73;;;5.28;;
6626;SDS011;3349;49.830;8.748;2023-08-01T03:11:32;8.48;;;5.53;;
6626;SDS011;3349;49.830;8.748;2023-08-01T03:14:01;7.15;;;5.28;;
6626;SDS011;3349;49.830;8.748;2023-08-01T03:16:29;11.35;;;5.40;;
6626;SDS011;3349;49.830;8.748;2023-08-01T03:18:56;7.93;;;5.13;;
6626;SDS011;3349;49.830;8.748;2023-08-01T03:21:25;7.82;;;6.10;;
6626;SDS011;3349;49.830;8.748;2023-08-01T03:23:52;9.35;;;5.35;;
6626;SDS011;3349;49.830;8.748;2023-08-01T03:26:19;8.38;;;5.53;;
6626;SDS011;3349;49.830;8.748;2023-08-01T03:28:45;9.15;;;5.55;;
6626;SDS011;3349;49.830;8.748;2023-08-01T03:31:12;10.55;;;5.53;;
6626;SDS011;3349;49.830;8.748;2023-08-01T03:33:39;9.57;;;5.47;;
6626;SDS011;3349;49.830;8.748;2023-08-01T03:36:05;9.70;;;5.80;;
6626;SDS011;3349;49.830;8.748;2023-08-01T03:38:33;11.00;;;5.18;;
6626;SDS011;3349;49.830;8.748;2023-08-01T03:41:00;14.70;;;5.50;;
6626;SDS011;3349;49.830;8.748;2023-08-01T03:43:29;8.15;;;5.50;;
6626;SDS011;3349;49.830;8.748;2023-08-01T03:45:55;7.97;;;4.85;;
6626;SDS011;3349;49.830;8.748;2023-08-01T03:48:22;9.73;;;5.53;;
6626;SDS011;3349;49.830;8.748;2023-08-01T03:50:49;10.07;;;5.28;;
6626;SDS011;3349;49.830;8.748;2023-08-01T03:53:15;8.20;;;5.30;;
6626;SDS011;3349;49.830;8.748;2023-08-01T03:55:44;10.00;;;5.13;;
6626;SDS011;3349;49.830;8.748;2023-08-01T03:58:12;7.03;;;5.03;;
6626;SDS011;3349;49.830;8.748;2023-08-01T04:00:39;8.32;;;5.03;;
6626;SDS011;3349;49.830;8.748;2023-08-01T04:03:05;10.30;;;4.78;;
6626;SDS011;3349;49.830;8.748;2023-08-01T04:05:32;9.52;;;5.18;;
6626;SDS011;3349;49.830;8.748;2023-08-01T04:07:59;6.40;;;4.78;;
6626;SDS011;3349;49.830;8.748;2023-08-01T04:10:26;7.53;;;4.78;;
6626;SDS011;3349;49.830;8.748;2023-08-01T04:12:54;9.35;;;5.55;;
6626;SDS011;3349;49.830;8.748;2023-08-01T04:15:20;8.23;;;5.47;;
6626;SDS011;3349;49.830;8.748;2023-08-01T04:17:47;8.10;;;5.10;;
6626;SDS011;3349;49.830;8.748;2023-08-01T04:20:14;8.93;;;5.18;;
6626;SDS011;3349;49.830;8.748;2023-08-01T04:22:40;7.32;;;4.95;;
6626;SDS011;3349;49.830;8.748;2023-08-01T04:25:07;7.28;;;4.75;;
6626;SDS011;3349;49.830;8.748;2023-08-01T04:27:34;6.10;;;4.60;;
6626;SDS011;3349;49.830;8.748;2023-08-01T04:30:02;5.80;;;4.80;;
6626;SDS011;3349;49.830;8.748;2023-08-01T04:32:30;5.95;;;4.80;;
6626;SDS011;3349;49.830;8.748;2023-08-01T04:34:56;7.10;;;4.45;;
6626;SDS011;3349;49.830;8.748;2023-08-01T04:37:23;8.35;;;4.93;;
6626;SDS011;3349;49.830;8.748;2023-08-01T04:39:50;6.82;;;5.45;;
6626;SDS011;3349;49.830;8.748;2023-08-01T04:42:17;8.20;;;5.60;;
6626;SDS011;3349;49.830;8.748;2023-08-01T04:44:44;8.50;;;5.38;;
6626;SDS011;3349;49.830;8.748;2023-08-01T04:47:13;8.55;;;5.15;;
6626;SDS011;3349;49.830;8.748;2023-08-01T04:49:40;8.93;;;5.55;;
6626;SDS011;3349;49.830;8.748;2023-08-01T04:52:07;10.25;;;5.80;;
6626;SDS011;3349;49.830;8.748;2023-08-01T04:54:33;7.72;;;5.03;;
6626;SDS011;3349;49.830;8.748;2023-08-01T04:57:00;11.20;;;5.40;;
6626;SDS011;3349;49.830;8.748;2023-08-01T04:59:27;8.68;;;5.38;;
6626;SDS011;3349;49.830;8.748;2023-08-01T05:01:53;8.50;;;5.40;;
6626;SDS011;3349;49.830;8.748;2023-08-01T05:04:21;7.97;;;5.30;;
6626;SDS011;3349;49.830;8.748;2023-08-01T05:06:48;7.18;;;4.60;;
6626;SDS011;3349;49.830;8.748;2023-08-01T05:09:15;10.93;;;5.63;;
6626;SDS011;3349;49.830;8.748;2023-08-01T05:11:41;9.55;;;5.20;;
6626;SDS011;3349;49.830;8.748;2023-08-01T05:14:08;8.40;;;4.93;;
6626;SDS011;3349;49.830;8.748;2023-08-01T05:16:35;6.97;;;4.80;;
6626;SDS011;3349;49.830;8.748;2023-08-01T05:19:01;8.32;;;5.43;;
6626;SDS011;3349;49.830;8.748;2023-08-01T05:21:29;7.00;;;5.97;;
6626;SDS011;3349;49.830;8.748;2023-08-01T05:23:56;10.60;;;6.32;;
6626;SDS011;3349;49.830;8.748;2023-08-01T05:26:23;8.27;;;6.38;;
6626;SDS011;3349;49.830;8.748;2023-08-01T05:28:50;6.85;;;4.93;;
6626;SDS011;3349;49.830;8.748;2023-08-01T05:31:17;6.43;;;4.78;;
6626;SDS011;3349;49.830;8.748;2023-08-01T05:33:43;4.93;;;3.85;;
6626;SDS011;3349;49.830;8.748;2023-08-01T05:36:10;7.88;;;4.25;;
6626;SDS011;3349;49.830;8.748;2023-08-01T05:38:38;4.95;;;4.32;;
6626;SDS011;3349;49.830;8.748;2023-08-01T05:41:05;5.43;;;4.38;;
6626;SDS011;3349;49.830;8.748;2023-08-01T05:43:32;8.02;;;4.78;;
6626;SDS011;3349;49.830;8.748;2023-08-01T05:45:58;9.60;;;4.90;;
6626;SDS011;3349;49.830;8.748;2023-08-01T05:48:25;7.18;;;4.78;;
6626;SDS011;3349;49.830;8.748;2023-08-01T05:50:52;8.13;;;5.13;;
6626;SDS011;3349;49.830;8.748;2023-08-01T05:53:20;8.77;;;5.65;;
6626;SDS011;3349;49.830;8.748;2023-08-01T05:55:48;7.97;;;5.25;;
6626;SDS011;3349;49.830;8.748;2023-08-01T05:58:15;8.20;;;5.65;;
6626;SDS011;3349;49.830;8.748;2023-08-01T06:00:42;7.88;;;5.10;;
6626;SDS011;3349;49.830;8.748;2023-08-01T06:03:09;9.07;;;4.57;;
6626;SDS011;3349;49.830;8.748;2023-08-01T06:05:35;6.28;;;4.75;;
6626;SDS011;3349;49.830;8.748;2023-08-01T06:08:02;6.95;;;4.30;;
6626;SDS011;3349;49.830;8.748;2023-08-01T06:10:29;4.88;;;4.00;;
6626;SDS011;3349;49.830;8.748;2023-08-01T06:12:58;4.80;;;4.10;;
6626;SDS011;3349;49.830;8.748;2023-08-01T06:15:24;5.50;;;4.70;;
6626;SDS011;3349;49.830;8.748;2023-08-01T06:17:51;6.53;;;3.90;;
6626;SDS011;3349;49.830;8.748;2023-08-01T06:20:18;5.80;;;4.47;;
6626;SDS011;3349;49.830;8.748;2023-08-01T06:22:45;6.13;;;4.60;;
6626;SDS011;3349;49.830;8.748;2023-08-01T06:25:12;6.00;;;4.35;;
6626;SDS011;3349;49.830;8.748;2023-08-01T06:27:39;7.03;;;4.20;;
6626;SDS011;3349;49.830;8.748;2023-08-01T06:30:07;6.63;;;4.20;;
6626;SDS011;3349;49.830;8.748;2023-08-01T06:32:35;5.45;;;4.22;;
6626;SDS011;3349;49.830;8.748;2023-08-01T06:35:01;5.38;;;3.78;;
6626;SDS011;3349;49.830;8.748;2023-08-01T06:37:28;4.13;;;3.38;;
6626;SDS011;3349;49.830;8.748;2023-08-01T06:39:55;5.60;;;3.55;;
6626;SDS011;3349;49.830;8.748;2023-08-01T06:42:23;3.75;;;2.75;;
6626;SDS011;3349;49.830;8.748;2023-08-01T06:44:50;3.78;;;3.28;;
6626;SDS011;3349;49.830;8.748;2023-08-01T06:47:18;5.75;;;3.15;;
6626;SDS011;3349;49.830;8.748;2023-08-01T06:49:45;4.40;;;2.88;;
6626;SDS011;3349;49.830;8.748;2023-08-01T06:52:11;4.35;;;3.53;;
6626;SDS011;3349;49.830;8.748;2023-08-01T06:54:38;5.45;;;3.70;;
6626;SDS011;3349;49.830;8.748;2023-08-01T06:57:05;4.57;;;2.80;;
6626;SDS011;3349;49.830;8.748;2023-08-01T06:59:32;5.75;;;3.40;;
6626;SDS011;3349;49.830;8.748;2023-08-01T07:02:00;4.05;;;3.35;;
6626;SDS011;3349;49.830;8.748;2023-08-01T07:04:28;6.53;;;3.28;;
6626;SDS011;3349;49.830;8.748;2023-08-01T07:06:54;5.13;;;3.38;;
6626;SDS011;3349;49.830;8.748;2023-08-01T07:09:21;5.20;;;3.70;;
6626;SDS011;3349;49.830;8.748;2023-08-01T07:11:48;7.53;;;3.50;;
6626;SDS011;3349;49.830;8.748;2023-08-01T07:14:14;3.83;;;3.00;;
6626;SDS011;3349;49.830;8.748;2023-08-01T07:16:41;3.80;;;2.55;;
6626;SDS011;3349;49.830;8.748;2023-08-01T07:19:08;3.78;;;2.65;;
6626;SDS011;3349;49.830;8.748;2023-08-01T07:21:36;3.70;;;2.90;;
6626;SDS011;3349;49.830;8.748;2023-08-01T07:24:03;4.00;;;2.90;;
6626;SDS011;3349;49.830;8.748;2023-08-01T07:26:31;3.42;;;2.90;;
6626;SDS011;3349;49.830;8.748;2023-08-01T07:28:57;3.50;;;2.70;;
6626;SDS011;3349;49.830;8.748;2023-08-01T07:31:24;2.67;;;2.20;;
6626;SDS011;3349;49.830;8.748;2023-08-01T07:33:51;2.75;;;2.50;;
6626;SDS011;3349;49.830;8.748;2023-08-01T07:36:18;2.95;;;2.55;;
6626;SDS011;3349;49.830;8.748;2023-08-01T07:38:47;3.97;;;2.30;;
6626;SDS011;3349;49.830;8.748;2023-08-01T07:41:14;6.68;;;3.42;;
6626;SDS011;3349;49.830;8.748;2023-08-01T07:43:41;2.60;;;2.00;;
6626;SDS011;3349;49.830;8.748;2023-08-01T07:46:08;2.72;;;1.90;;
6626;SDS011;3349;49.830;8.748;2023-08-01T07:48:36;2.60;;;1.90;;
6626;SDS011;3349;49.830;8.748;2023-08-01T07:51:04;2.30;;;1.80;;
6626;SDS011;3349;49.830;8.748;2023-08-01T07:53:32;2.33;;;1.70;;
6626;SDS011;3349;49.830;8.748;2023-08-01T07:56:00;2.97;;;1.75;;
6626;SDS011;3349;49.830;8.748;2023-08-01T07:58:27;2.33;;;1.75;;
6626;SDS011;3349;49.830;8.748;2023-08-01T08:00:54;2.47;;;1.70;;
6626;SDS011;3349;49.830;8.748;2023-08-01T08:03:21;2.15;;;1.60;;
6626;SDS011;3349;49.830;8.748;2023-08-01T08:05:48;1.55;;;1.45;;
6626;SDS011;3349;49.830;8.748;2023-08-01T08:08:15;4.28;;;1.92;;
6626;SDS011;3349;49.830;8.748;2023-08-01T08:10:42;3.03;;;1.90;;
6626;SDS011;3349;49.830;8.748;2023-08-01T08:13:10;2.40;;;1.98;;
6626;SDS011;3349;49.830;8.748;2023-08-01T08:15:36;2.72;;;2.17;;
6626;SDS011;3349;49.830;8.748;2023-08-01T08:18:03;3.47;;;2.30;;
6626;SDS011;3349;49.830;8.748;2023-08-01T08:20:30;2.65;;;2.45;;
6626;SDS011;3349;49.830;8.748;2023-08-01T08:22:57;2.10;;;1.90;;
6626;SDS011;3349;49.830;8.748;2023-08-01T08:25:24;2.22;;;2.03;;
6626;SDS011;3349;49.830;8.748;2023-08-01T08:27:50;2.35;;;1.73;;
6626;SDS011;3349;49.830;8.748;2023-08-01T08:30:18;2.58;;;1.83;;
6626;SDS011;3349;49.830;8.748;2023-08-01T08:32:45;2.22;;;1.90;;
6626;SDS011;3349;49.830;8.748;2023-08-01T08:35:12;2.03;;;1.80;;
6626;SDS011;3349;49.830;8.748;2023-08-01T08:37:39;2.35;;;1.95;;
6626;SDS011;3349;49.830;8.748;2023-08-01T08:40:06;2.65;;;2.15;;
6626;SDS011;3349;49.830;8.748;2023-08-01T08:42:33;2.03;;;1.70;;
6626;SDS011;3349;49.830;8.748;2023-08-01T08:45:01;2.60;;;2.03;;
6626;SDS011;3349;49.830;8.748;2023-08-01T08:47:29;2.42;;;1.70;;
6626;SDS011;3349;49.830;8.748;2023-08-01T08:49:57;2.42;;;1.80;;
6626;SDS011;3349;49.830;8.748;2023-08-01T08:52:24;2.58;;;1.55;;
6626;SDS011;3349;49.830;8.748;2023-08-01T08:54:52;1.70;;;1.60;;
6626;SDS011;3349;49.830;8.748;2023-08-01T08:57:19;4.70;;;1.67;;
6626;SDS011;3349;49.830;8.748;2023-08-01T08:59:47;1.30;;;1.20;;
6626;SDS011;3349;49.830;8.748;2023-08-01T09:02:15;1.35;;;1.20;;
6626;SDS011;3349;49.830;8.748;2023-08-01T09:04:43;2.05;;;1.25;;
6626;SDS011;3349;49.830;8.748;2023-08-01T09:07:10;2.00;;;1.33;;
6626;SDS011;3349;49.830;8.748;2023-08-01T09:09:39;1.75;;;1.15;;
6626;SDS011;3349;49.830;8.748;2023-08-01T09:12:06;1.75;;;1.20;;
6626;SDS011;3349;49.830;8.748;2023-08-01T09:14:35;1.35;;;1.25;;
6626;SDS011;3349;49.830;8.748;2023-08-01T09:17:05;1.25;;;1.15;;
6626;SDS011;3349;49.830;8.748;2023-08-01T09:19:33;1.20;;;1.10;;
6626;SDS011;3349;49.830;8.748;2023-08-01T09:22:02;1.30;;;1.20;;
6626;SDS011;3349;49.830;8.748;2023-08-01T09:24:37;1.20;;;1.10;;
6626;SDS011;3349;49.830;8.748;2023-08-01T09:27:04;1.13;;;1.00;;
6626;SDS011;3349;49.830;8.748;2023-08-01T09:29:33;1.48;;;1.38;;
6626;SDS011;3349;49.830;8.748;2023-08-01T09:32:00;3.47;;;1.20;;
6626;SDS011;3349;49.830;8.748;2023-08-01T09:34:37;2.63;;;1.40;;
6626;SDS011;3349;49.830;8.748;2023-08-01T09:37:05;2.13;;;1.35;;
6626;SDS011;3349;49.830;8.748;2023-08-01T09:39:33;3.83;;;1.33;;
6626;SDS011;3349;49.830;8.748;2023-08-01T09:42:00;3.35;;;1.60;;
6626;SDS011;3349;49.830;8.748;2023-08-01T09:44:28;2.33;;;1.50;;
6626;SDS011;3349;49.830;8.748;2023-08-01T09:46:56;1.50;;;1.40;;
6626;SDS011;3349;49.830;8.748;2023-08-01T09:49:23;1.95;;;1.20;;
6626;SDS011;3349;49.830;8.748;2023-08-01T09:51:50;2.45;;;2.00;;
6626;SDS011;3349;49.830;8.748;2023-08-01T09:54:18;1.65;;;1.55;;
6626;SDS011;3349;49.830;8.748;2023-08-01T09:56:46;1.65;;;1.30;;
6626;SDS011;3349;49.830;8.748;2023-08-01T09:59:16;1.70;;;1.60;;
6626;SDS011;3349;49.830;8.748;2023-08-01T10:01:46;3.35;;;1.70;;
6626;SDS011;3349;49.830;8.748;2023-08-01T10:04:16;2.58;;;1.70;;
6626;SDS011;3349;49.830;8.748;2023-08-01T10:06:45;3.85;;;1.23;;
6626;SDS011;3349;49.830;8.748;2023-08-01T10:09:15;1.65;;;1.30;;
6626;SDS011;3349;49.830;8.748;2023-08-01T10:11:44;1.48;;;1.38;;
6626;SDS011;3349;49.830;8.748;2023-08-01T10:14:12;2.35;;;1.55;;
6626;SDS011;3349;49.830;8.748;2023-08-01T10:16:39;1.98;;;1.50;;
6626;SDS011;3349;49.830;8.748;2023-08-01T10:19:07;2.83;;;1.60;;
6626;SDS011;3349;49.830;8.748;2023-08-01T10:21:37;2.72;;;2.10;;
6626;SDS011;3349;49.830;8.748;2023-08-01T10:24:04;3.67;;;1.60;;
6626;SDS011;3349;49.830;8.748;2023-08-01T10:26:32;1.90;;;1.60;;
6626;SDS011;3349;49.830;8.748;2023-08-01T10:29:00;2.45;;;1.63;;
6626;SDS011;3349;49.830;8.748;2023-08-01T10:31:27;2.33;;;1.70;;
6626;SDS011;3349;49.830;8.748;2023-08-01T10:34:03;2.85;;;1.80;;
6626;SDS011;3349;49.830;8.748;2023-08-01T10:36:30;3.03;;;1.80;;
6626;SDS011;3349;49.830;8.748;2023-08-01T10:38:58;3.10;;;1.90;;
6626;SDS011;3349;49.830;8.748;2023-08-01T10:41:26;1.80;;;1.70;;
6626;SDS011;3349;49.830;8.748;2023-08-01T10:44:05;3.67;;;1.35;;
6626;SDS011;3349;49.830;8.748;2023-08-01T10:46:45;1.83;;;1.60;;
6626;SDS011;3349;49.830;8.748;2023-08-01T10:49:12;2.70;;;1.88;;
6626;SDS011;3349;49.830;8.748;2023-08-01T10:51:39;2.22;;;1.70;;
6626;SDS011;3349;49.830;8.748;2023-08-01T10:54:06;2.05;;;1.60;;
6626;SDS011;3349;49.830;8.748;2023-08-01T10:56:44;2.83;;;1.92;;
6626;SDS011;3349;49.830;8.748;2023-08-01T10:59:13;2.00;;;1.83;;
6626;SDS011;3349;49.830;8.748;2023-08-01T11:01:43;4.25;;;1.95;;
6626;SDS011;3349;49.830;8.748;2023-08-01T11:04:14;1.75;;;1.60;;
6626;SDS011;3349;49.830;8.748;2023-08-01T11:06:43;2.53;;;1.70;;
6626;SDS011;3349;49.830;8.748;2023-08-01T11:09:14;3.00;;;2.10;;
6626;SDS011;3349;49.830;8.748;2023-08-01T11:11:42;1.77;;;1.67;;
6626;SDS011;3349;49.830;8.748;2023-08-01T11:14:09;4.25;;;1.70;;
6626;SDS011;3349;49.830;8.748;2023-08-01T11:16:39;2.13;;;1.90;;
6626;SDS011;3349;49.830;8.748;2023-08-01T11:19:06;2.70;;;1.70;;
6626;SDS011;3349;49.830;8.748;2023-08-01T11:21:44;2.85;;;1.95;;
6626;SDS011;3349;49.830;8.748;2023-08-01T11:24:11;1.75;;;1.65;;
6626;SDS011;3349;49.830;8.748;2023-08-01T11:26:39;2.75;;;2.13;;
6626;SDS011;3349;49.830;8.748;2023-08-01T11:29:07;4.15;;;2.13;;
6626;SDS011;3349;49.830;8.748;2023-08-01T11:31:35;2.33;;;1.95;;
6626;SDS011;3349;49.830;8.748;2023-08-01T11:34:02;2.15;;;1.85;;
6626;SDS011;3349;49.830;8.748;2023-08-01T11:36:29;2.42;;;1.80;;
6626;SDS011;3349;49.830;8.748;2023-08-01T11:38:57;2.78;;;2.30;;
6626;SDS011;3349;49.830;8.748;2023-08-01T11:41:24;2.28;;;2.03;;
6626;SDS011;3349;49.830;8.748;2023-08-01T11:43:53;2.10;;;1.90;;
6626;SDS011;3349;49.830;8.748;2023-08-01T11:46:20;3.47;;;2.03;;
6626;SDS011;3349;49.830;8.748;2023-08-01T11:48:49;3.55;;;2.13;;
6626;SDS011;3349;49.830;8.748;2023-08-01T11:51:16;2.90;;;1.92;;
6626;SDS011;3349;49.830;8.748;2023-08-01T11:53:43;2.17;;;1.98;;
6626;SDS011;3349;49.830;8.748;2023-08-01T11:56:19;2.38;;;1.90;;
6626;SDS011;3349;49.830;8.748;2023-08-01T11:58:46;2.78;;;2.03;;
6626;SDS011;3349;49.830;8.748;2023-08-01T12:01:13;3.45;;;1.98;;
6626;SDS011;3349;49.830;8.748;2023-08-01T12:03:44;2.70;;;2.13;;
6626;SDS011;3349;49.830;8.748;2023-08-01T12:06:13;3.63;;;2.22;;
6626;SDS011;3349;49.830;8.748;2023-08-01T12:08:40;3.08;;;1.95;;
6626;SDS011;3349;49.830;8.748;2023-08-01T12:11:16;3.00;;;1.80;;
6626;SDS011;3349;49.830;8.748;2023-08-01T12:13:44;4.43;;;2.00;;
6626;SDS011;3349;49.830;8.748;2023-08-01T12:16:11;2.20;;;2.00;;
6626;SDS011;3349;49.830;8.748;2023-08-01T12:18:40;2.55;;;1.70;;
6626;SDS011;3349;49.830;8.748;2023-08-01T12:21:07;2.33;;;1.90;;
6626;SDS011;3349;49.830;8.748;2023-08-01T12:23:36;3.38;;;2.20;;
6626;SDS011;3349;49.830;8.748;2023-08-01T12:26:03;2.38;;;2.00;;
6626;SDS011;3349;49.830;8.748;2023-08-01T12:28:29;2.47;;;1.83;;
6626;SDS011;3349;49.830;8.748;2023-08-01T12:30:56;2.10;;;1.90;;
6626;SDS011;3349;49.830;8.748;2023-08-01T12:33:23;2.67;;;2.05;;
6626;SDS011;3349;49.830;8.748;2023-08-01T12:35:50;2.70;;;1.80;;
6626;SDS011;3349;49.830;8.748;2023-08-01T12:38:17;2.38;;;1.80;;
6626;SDS011;3349;49.830;8.748;2023-08-01T12:40:45;2.13;;;1.70;;
6626;SDS011;3349;49.830;8.748;2023-08-01T12:43:12;2.40;;;1.70;;
6626;SDS011;3349;49.830;8.748;2023-08-01T12:45:41;2.28;;;1.70;;
6626;SDS011;3349;49.830;8.748;2023-08-01T12:48:08;2.45;;;1.50;;
6626;SDS011;3349;49.830;8.748;2023-08-01T12:50:35;2.10;;;1.70;;
6626;SDS011;3349;49.830;8.748;2023-08-01T12:53:01;2.17;;;1.98;;
6626;SDS011;3349;49.830;8.748;2023-08-01T12:55:28;2.03;;;1.60;;
6626;SDS011;3349;49.830;8.748;2023-08-01T12:57:56;2.35;;;2.05;;
6626;SDS011;3349;49.830;8.748;2023-08-01T13:00:23;3.40;;;2.10;;
6626;SDS011;3349;49.830;8.748;2023-08-01T13:02:50;3.42;;;1.80;;
6626;SDS011;3349;49.830;8.748;2023-08-01T13:05:16;1.85;;;1.73;;
6626;SDS011;3349;49.830;8.748;2023-08-01T13:07:43;2.88;;;1.98;;
6626;SDS011;3349;49.830;8.748;2023-08-01T13:10:10;3.03;;;2.00;;
6626;SDS011;3349;49.830;8.748;2023-08-01T13:12:37;2.13;;;1.80;;
6626;SDS011;3349;49.830;8.748;2023-08-01T13:15:05;2.17;;;1.80;;
6626;SDS011;3349;49.830;8.748;2023-08-01T13:17:33;4.72;;;1.90;;
6626;SDS011;3349;49.830;8.748;2023-08-01T13:20:00;2.10;;;1.88;;
6626;SDS011;3349;49.830;8.748;2023-08-01T13:22:28;2.25;;;1.90;;
6626;SDS011;3349;49.830;8.748;2023-08-01T13:24:55;2.10;;;1.90;;
6626;SDS011;3349;49.830;8.748;2023-08-01T13:27:21;1.88;;;1.73;;
6626;SDS011;3349;49.830;8.748;2023-08-01T13:29:48;2.70;;;2.05;;
6626;SDS011;3349;49.830;8.748;2023-08-01T13:32:19;3.47;;;2.00;;
6626;SDS011;3349;49.830;8.748;2023-08-01T13:34:46;3.33;;;1.80;;
6626;SDS011;3349;49.830;8.748;2023-08-01T13:37:12;3.53;;;1.92;;
6626;SDS011;3349;49.830;8.748;2023-08-01T13:39:39;2.58;;;1.90;;
6626;SDS011;3349;49.830;8.748;2023-08-01T13:42:06;2.92;;;1.70;;
6626;SDS011;3349;49.830;8.748;2023-08-01T13:44:33;5.53;;;2.25;;
6626;SDS011;3349;49.830;8.748;2023-08-01T13:46:59;2.53;;;1.95;;
6626;SDS011;3349;49.830;8.748;2023-08-01T13:49:29;2.58;;;2.10;;
6626;SDS011;3349;49.830;8.748;2023-08-01T13:51:56;2.80;;;2.10;;
6626;SDS011;3349;49.830;8.748;2023-08-01T13:54:23;3.05;;;2.00;;
6626;SDS011;3349;49.830;8.748;2023-08-01T13:56:49;4.70;;;2.20;;
6626;SDS011;3349;49.830;8.748;2023-08-01T13:59:16;2.35;;;1.70;;
6626;SDS011;3349;49.830;8.748;2023-08-01T14:01:43;2.33;;;1.75;;
6626;SDS011;3349;49.830;8.748;2023-08-01T14:04:10;2.55;;;1.90;;
6626;SDS011;3349;49.830;8.748;2023-08-01T14:06:40;3.78;;;2.00;;
6626;SDS011;3349;49.830;8.748;2023-08-01T14:09:07;3.33;;;2.13;;
6626;SDS011;3349;49.830;8.748;2023-08-01T14:11:34;3.63;;;2.20;;
6626;SDS011;3349;49.830;8.748;2023-08-01T14:14:01;2.40;;;2.00;;
6626;SDS011;3349;49.830;8.748;2023-08-01T14:16:28;3.97;;;2.05;;
6626;SDS011;3349;49.830;8.748;2023-08-01T14:18:55;4.18;;;2.13;;
6626;SDS011;3349;49.830;8.748;2023-08-01T14:21:22;4.75;;;2.10;;
6626;SDS011;3349;49.830;8.748;2023-08-01T14:23:50;3.42;;;2.08;;
6626;SDS011;3349;49.830;8.748;2023-08-01T14:26:17;4.38;;;2.45;;
6626;SDS011;3349;49.830;8.748;2023-08-01T14:28:43;4.93;;;2.65;;
6626;SDS011;3349;49.830;8.748;2023-08-01T14:31:11;2.40;;;2.10;;
6626;SDS011;3349;49.830;8.748;2023-08-01T14:33:37;3.47;;;2.40;;
6626;SDS011;3349;49.830;8.748;2023-08-01T14:36:07;3.08;;;2.10;;
6626;SDS011;3349;49.830;8.748;2023-08-01T14:38:37;5.68;;;2.50;;
6626;SDS011;3349;49.830;8.748;2023-08-01T14:41:05;3.58;;;2.60;;
6626;SDS011;3349;49.830;8.748;2023-08-01T14:43:32;12.38;;;4.68;;
6626;SDS011;3349;49.830;8.748;2023-08-01T14:45:59;7.85;;;3.38;;
6626;SDS011;3349;49.830;8.748;2023-08-01T14:48:26;3.67;;;2.67;;
6626;SDS011;3349;49.830;8.748;2023-08-01T14:50:53;4.53;;;2.83;;
6626;SDS011;3349;49.830;8.748;2023-08-01T14:53:19;5.63;;;2.83;;
6626;SDS011;3349;49.830;8.748;2023-08-01T14:55:46;5.63;;;3.15;;
6626;SDS011;3349;49.830;8.748;2023-08-01T14:58:22;4.35;;;2.80;;
6626;SDS011;3349;49.830;8.748;2023-08-01T15:00:49;6.88;;;3.20;;
6626;SDS011;3349;49.830;8.748;2023-08-01T15:03:15;5.95;;;3.10;;
6626;SDS011;3349;49.830;8.748;2023-08-01T15:05:43;5.55;;;2.78;;
6626;SDS011;3349;49.830;8.748;2023-08-01T15:08:10;4.07;;;2.70;;
6626;SDS011;3349;49.830;8.748;2023-08-01T15:10:36;5.03;;;3.05;;
6626;SDS011;3349;49.830;8.748;2023-08-01T15:13:03;6.53;;;3.17;;